Time;durP1;ratioP1;P1;durP2;ratioP2;P2;SDS_P1;SDS_P2;PMS_P1;PMS_P2;Temp;Humidity;BMP_temperature;BMP_pressure;BME280_temperature;BME280_humidity;BME280_pressure;Samples;Min_cycle;Max_cycle;Signal;HPM_P1;HPM_P2
2023/09/29 00:01:38;;;;;;;7.75;4.18;;;11.90;99.90;;;;;;4941480;29;20035;-84
2023/09/29 00:04:05;;;;;;;8.98;4.32;;;11.90;99.90;;;;;;4941219;29;20045;-85
2023/09/29 00:06:34;;;;;;;8.73;4.53;;;11.80;99.90;;;;;;4939315;29;20043;-85
2023/09/29 00:09:06;;;;;;;8.35;4.22;;;11.80;99.90;;;;;;4940008;29;20042;-84
2023/09/29 00:11:32;;;;;;;8.80;4.35;;;11.70;99.90;;;;;;4941010;29;20548;-84
2023/09/29 00:13:58;;;;;;;10.68;4.25;;;11.60;99.90;;;;;;4939305;29;20027;-84
2023/09/29 00:16:24;;;;;;;6.32;4.03;;;11.60;99.90;;;;;;4941404;29;20031;-84
2023/09/29 00:18:49;;;;;;;8.85;4.07;;;11.50;99.90;;;;;;4941354;29;20284;-84
2023/09/29 00:21:15;;;;;;;7.93;3.80;;;11.40;99.90;;;;;;4939960;29;20491;-84
2023/09/29 00:23:40;;;;;;;6.32;3.90;;;11.40;99.90;;;;;;4941193;29;20034;-84
2023/09/29 00:26:06;;;;;;;7.38;3.95;;;11.40;99.90;;;;;;4940550;28;21399;-84
2023/09/29 00:28:32;;;;;;;5.53;3.90;;;11.40;99.90;;;;;;4941456;29;20054;-84
2023/09/29 00:30:58;;;;;;;6.57;4.10;;;11.40;99.90;;;;;;4940948;29;20031;-84
2023/09/29 00:33:23;;;;;;;5.95;4.18;;;11.50;99.90;;;;;;4940785;29;21013;-84
2023/09/29 00:35:49;;;;;;;8.75;3.85;;;11.50;99.90;;;;;;4940782;28;20893;-84
2023/09/29 00:38:14;;;;;;;7.03;4.78;;;11.40;99.90;;;;;;4940832;29;20031;-84
2023/09/29 00:40:40;;;;;;;8.23;4.60;;;11.40;99.90;;;;;;4940385;29;20035;-84
2023/09/29 00:43:06;;;;;;;5.93;3.90;;;11.40;99.90;;;;;;4941071;29;20513;-84
2023/09/29 00:45:33;;;;;;;9.00;4.25;;;11.40;99.90;;;;;;4939885;28;20027;-84
2023/09/29 00:48:07;;;;;;;5.75;4.13;;;11.30;99.90;;;;;;4940007;29;20063;-83
2023/09/29 00:50:34;;;;;;;13.68;5.03;;;11.30;99.90;;;;;;4941506;28;20030;-84
2023/09/29 00:53:07;;;;;;;6.47;4.18;;;11.30;99.90;;;;;;4944699;29;20110;-84
2023/09/29 00:55:35;;;;;;;8.40;4.65;;;11.30;99.90;;;;;;4942282;29;20039;-83
2023/09/29 00:58:02;;;;;;;8.90;4.75;;;11.30;99.90;;;;;;4945920;29;20035;-84
2023/09/29 01:03:05;;;;;;;8.95;4.50;;;11.30;99.90;;;;;;4943223;29;20039;-84
2023/09/29 01:05:39;;;;;;;8.30;4.32;;;11.30;99.90;;;;;;4945258;29;20024;-83
2023/09/29 01:08:09;;;;;;;6.63;4.30;;;11.20;99.90;;;;;;4945717;29;20039;-84
2023/09/29 01:10:38;;;;;;;10.18;5.18;;;11.30;99.90;;;;;;4943491;29;20054;-84
2023/09/29 01:13:05;;;;;;;6.45;4.82;;;11.30;99.90;;;;;;4945026;29;20031;-83
2023/09/29 01:15:33;;;;;;;7.57;4.47;;;11.30;99.90;;;;;;4944891;28;20070;-83
2023/09/29 01:17:58;;;;;;;10.50;4.80;;;11.30;99.90;;;;;;4945073;29;20038;-84
2023/09/29 01:20:28;;;;;;;7.20;4.18;;;11.20;99.90;;;;;;4928322;29;20031;-83
2023/09/29 01:22:55;;;;;;;7.32;4.80;;;11.20;99.90;;;;;;4946547;29;20094;-84
2023/09/29 01:25:23;;;;;;;6.93;4.10;;;11.20;99.90;;;;;;4945547;28;20410;-83
2023/09/29 01:27:49;;;;;;;7.47;4.30;;;11.20;99.90;;;;;;4945023;29;20071;-83
2023/09/29 01:30:18;;;;;;;6.85;4.38;;;11.20;99.90;;;;;;4945143;29;20109;-84
2023/09/29 01:32:46;;;;;;;9.48;4.45;;;11.20;99.90;;;;;;4944724;29;20033;-84
2023/09/29 01:35:15;;;;;;;9.80;4.65;;;11.20;99.90;;;;;;4943199;28;21021;-84
2023/09/29 01:37:42;;;;;;;8.77;4.30;;;11.20;99.90;;;;;;4944659;29;20030;-84
2023/09/29 01:40:09;;;;;;;6.95;4.43;;;11.20;99.90;;;;;;4944830;29;20098;-83
2023/09/29 01:42:35;;;;;;;7.82;4.95;;;11.20;99.90;;;;;;4945032;29;20122;-83
2023/09/29 01:45:03;;;;;;;8.40;4.47;;;11.10;99.90;;;;;;4944222;28;20064;-84
2023/09/29 01:47:30;;;;;;;5.93;3.78;;;11.10;99.90;;;;;;4946526;29;20090;-83
2023/09/29 01:49:55;;;;;;;7.82;4.25;;;11.10;99.90;;;;;;4945373;29;20055;-84
2023/09/29 01:52:22;;;;;;;7.18;4.43;;;11.10;99.90;;;;;;4945193;29;20143;-84
2023/09/29 01:54:49;;;;;;;8.88;4.43;;;11.10;99.90;;;;;;4945924;29;20058;-83
2023/09/29 01:57:15;;;;;;;9.82;4.05;;;11.10;99.90;;;;;;4946553;29;20398;-83
2023/09/29 01:59:41;;;;;;;7.07;4.85;;;11.00;99.90;;;;;;4944759;29;20043;-83
2023/09/29 02:02:06;;;;;;;10.35;4.65;;;11.00;99.90;;;;;;4946211;28;20506;-83
2023/09/29 02:04:32;;;;;;;9.65;3.95;;;11.00;99.90;;;;;;4946024;28;20034;-84
2023/09/29 02:06:58;;;;;;;9.05;4.53;;;11.00;99.90;;;;;;4945663;29;20031;-83
2023/09/29 02:09:24;;;;;;;9.52;3.85;;;11.00;99.90;;;;;;4944754;29;20033;-83
2023/09/29 02:11:49;;;;;;;7.82;4.22;;;10.90;99.90;;;;;;4945746;29;20031;-83
2023/09/29 02:14:15;;;;;;;6.23;4.20;;;10.90;99.90;;;;;;4945633;29;20041;-83
2023/09/29 02:16:40;;;;;;;5.22;3.85;;;10.80;99.90;;;;;;4944887;29;20051;-84
2023/09/29 02:19:06;;;;;;;8.30;4.10;;;10.80;99.90;;;;;;4946804;29;20023;-83
2023/09/29 02:21:32;;;;;;;6.30;3.95;;;10.80;99.90;;;;;;4946383;29;20031;-83
2023/09/29 02:23:58;;;;;;;5.23;3.77;;;10.80;99.90;;;;;;4945438;29;20035;-84
2023/09/29 02:26:28;;;;;;;7.07;3.70;;;10.70;99.90;;;;;;4946287;28;20035;-83
2023/09/29 02:28:54;;;;;;;6.57;4.13;;;10.70;99.90;;;;;;4947133;29;20039;-83
2023/09/29 02:31:20;;;;;;;6.30;4.10;;;10.70;99.90;;;;;;4946369;29;20098;-83
2023/09/29 02:33:45;;;;;;;6.53;3.95;;;10.70;99.90;;;;;;4945338;29;20103;-83
2023/09/29 02:36:11;;;;;;;7.57;4.37;;;10.60;99.90;;;;;;4946582;28;20035;-83
2023/09/29 02:38:36;;;;;;;6.70;4.35;;;10.60;99.90;;;;;;4946243;29;20094;-83
2023/09/29 02:41:02;;;;;;;6.80;3.87;;;10.60;99.90;;;;;;4944039;29;20023;-83
2023/09/29 02:43:30;;;;;;;8.35;4.30;;;10.60;99.90;;;;;;4946612;29;20118;-83
2023/09/29 02:45:56;;;;;;;10.83;4.47;;;10.60;99.90;;;;;;4945617;29;20030;-83
2023/09/29 02:48:22;;;;;;;9.33;4.43;;;10.60;99.90;;;;;;4944057;29;20027;-83
2023/09/29 02:50:48;;;;;;;7.87;4.20;;;10.60;99.90;;;;;;4950305;29;20038;-83
2023/09/29 02:53:14;;;;;;;9.00;3.97;;;10.60;99.90;;;;;;4951453;29;20031;-83
2023/09/29 02:55:40;;;;;;;7.38;4.35;;;10.50;99.90;;;;;;4948430;29;21499;-83
2023/09/29 02:58:07;;;;;;;6.57;3.80;;;10.50;99.90;;;;;;4948375;29;20035;-83
2023/09/29 03:00:32;;;;;;;5.73;3.87;;;10.50;99.90;;;;;;4949727;29;20083;-83
2023/09/29 03:02:58;;;;;;;7.03;4.20;;;10.40;99.90;;;;;;4949471;29;20039;-83
2023/09/29 03:05:25;;;;;;;7.72;4.03;;;10.40;99.90;;;;;;4947147;28;20024;-83
2023/09/29 03:07:51;;;;;;;6.68;4.30;;;10.40;99.90;;;;;;4949437;29;20031;-83
2023/09/29 03:10:17;;;;;;;8.20;4.00;;;10.40;99.90;;;;;;4948660;29;21126;-83
2023/09/29 03:12:44;;;;;;;8.43;4.17;;;10.40;99.90;;;;;;4947620;29;20034;-83
2023/09/29 03:15:15;;;;;;;7.10;4.23;;;10.50;99.90;;;;;;4947431;28;20027;-83
2023/09/29 03:17:41;;;;;;;7.25;4.40;;;10.50;99.90;;;;;;4949435;29;20035;-83
2023/09/29 03:20:12;;;;;;;6.87;4.37;;;10.50;99.90;;;;;;4948248;29;20038;-83
2023/09/29 03:22:39;;;;;;;8.03;4.57;;;10.50;99.90;;;;;;4948717;29;20438;-83
2023/09/29 03:25:06;;;;;;;9.37;4.23;;;10.50;99.90;;;;;;4949007;28;20057;-83
2023/09/29 03:27:32;;;;;;;7.87;4.87;;;10.50;99.90;;;;;;4948442;29;20103;-83
2023/09/29 03:30:00;;;;;;;6.13;4.40;;;10.50;99.90;;;;;;4948206;29;20026;-83
2023/09/29 03:32:26;;;;;;;7.13;4.80;;;10.50;99.90;;;;;;4949262;29;20110;-82
2023/09/29 03:34:52;;;;;;;9.13;4.57;;;10.50;99.90;;;;;;4944776;28;20035;-83
2023/09/29 03:37:19;;;;;;;7.37;4.63;;;10.50;99.90;;;;;;4947726;29;20055;-83
2023/09/29 03:39:47;;;;;;;8.23;5.07;;;10.60;99.90;;;;;;4949043;29;20046;-83
2023/09/29 03:42:14;;;;;;;6.77;4.20;;;10.60;99.90;;;;;;4949619;29;20071;-83
2023/09/29 03:44:39;;;;;;;6.70;4.57;;;10.50;99.90;;;;;;4947083;29;20027;-82
2023/09/29 03:47:05;;;;;;;5.60;4.13;;;10.50;99.90;;;;;;4948775;29;20854;-82
2023/09/29 03:49:31;;;;;;;9.55;4.82;;;10.50;99.90;;;;;;4947973;29;20035;-83
2023/09/29 03:51:57;;;;;;;7.05;4.45;;;10.50;99.90;;;;;;4946736;29;20023;-83
2023/09/29 03:54:23;;;;;;;6.53;4.67;;;10.50;99.90;;;;;;4946733;29;20038;-83
2023/09/29 03:56:51;;;;;;;9.57;4.53;;;10.50;99.90;;;;;;4948531;29;20039;-82
2023/09/29 03:59:18;;;;;;;7.13;4.50;;;10.50;99.90;;;;;;4948178;29;20094;-82
2023/09/29 04:01:44;;;;;;;8.03;4.77;;;10.50;99.90;;;;;;4945600;29;20023;-83
2023/09/29 04:04:10;;;;;;;6.93;4.55;;;10.50;99.90;;;;;;4947527;29;20514;-83
2023/09/29 04:06:36;;;;;;;7.33;4.50;;;10.50;99.90;;;;;;4946125;28;20040;-83
2023/09/29 04:09:03;;;;;;;5.82;4.43;;;10.40;99.90;;;;;;4945250;29;20035;-83
2023/09/29 04:11:28;;;;;;;7.40;4.40;;;10.40;99.90;;;;;;4946790;29;20569;-83
2023/09/29 04:13:54;;;;;;;6.67;4.63;;;10.40;99.90;;;;;;4945837;29;20027;-83
2023/09/29 04:16:20;;;;;;;7.30;4.47;;;10.40;99.90;;;;;;4945180;28;20039;-83
2023/09/29 04:18:45;;;;;;;7.63;4.73;;;10.30;99.90;;;;;;4944674;29;20027;-82
2023/09/29 04:21:15;;;;;;;9.30;4.73;;;10.30;99.90;;;;;;4947270;29;20510;-83
2023/09/29 04:23:41;;;;;;;7.33;4.87;;;10.30;99.90;;;;;;4945723;29;20055;-83
2023/09/29 04:26:18;;;;;;;6.97;4.63;;;10.20;99.90;;;;;;4944351;28;20045;-84
2023/09/29 04:28:44;;;;;;;6.50;4.10;;;10.20;99.90;;;;;;4945876;29;20043;-85
2023/09/29 04:31:10;;;;;;;8.17;4.83;;;10.20;99.90;;;;;;4946893;29;20031;-85
2023/09/29 04:33:36;;;;;;;9.07;4.80;;;10.20;99.90;;;;;;4944310;29;20042;-85
2023/09/29 04:36:02;;;;;;;6.50;4.20;;;10.20;99.90;;;;;;4942819;29;20051;-85
2023/09/29 04:38:28;;;;;;;7.37;3.97;;;10.20;99.90;;;;;;4944913;29;20124;-84
2023/09/29 04:40:53;;;;;;;5.87;4.30;;;10.20;99.90;;;;;;4944578;29;20060;-85
2023/09/29 04:43:19;;;;;;;9.83;4.90;;;10.10;99.90;;;;;;4944661;29;20043;-85
2023/09/29 04:45:44;;;;;;;9.37;4.90;;;10.10;99.90;;;;;;4945324;29;20501;-85
2023/09/29 04:48:10;;;;;;;9.80;4.50;;;10.10;99.90;;;;;;4944566;29;20061;-85
2023/09/29 04:50:35;;;;;;;8.57;4.83;;;10.10;99.90;;;;;;4926067;29;20169;-85
2023/09/29 04:53:01;;;;;;;11.07;5.17;;;10.10;99.90;;;;;;4944865;29;20063;-85
2023/09/29 04:55:28;;;;;;;8.40;4.57;;;10.10;99.90;;;;;;4944371;28;20514;-85
2023/09/29 04:57:54;;;;;;;9.70;4.53;;;10.10;99.90;;;;;;4943411;29;20031;-84
2023/09/29 05:00:20;;;;;;;10.00;4.77;;;10.10;99.90;;;;;;4943252;29;20126;-85
2023/09/29 05:02:46;;;;;;;9.00;4.70;;;10.10;99.90;;;;;;4943122;29;20046;-85
2023/09/29 05:05:13;;;;;;;9.50;4.43;;;10.10;99.90;;;;;;4942620;28;20031;-85
2023/09/29 05:07:39;;;;;;;8.63;4.63;;;10.10;99.90;;;;;;4942659;29;20064;-85
2023/09/29 05:10:06;;;;;;;7.17;4.67;;;10.10;99.90;;;;;;4943503;29;20059;-86
2023/09/29 05:12:33;;;;;;;10.10;4.50;;;10.00;99.90;;;;;;4943657;29;21495;-85
2023/09/29 05:14:58;;;;;;;9.73;4.73;;;10.00;99.90;;;;;;4942874;28;20094;-85
2023/09/29 05:17:24;;;;;;;8.00;5.10;;;10.00;99.90;;;;;;4943962;29;20023;-85
2023/09/29 05:19:49;;;;;;;9.77;4.80;;;10.00;99.90;;;;;;4943583;29;20031;-85
2023/09/29 05:22:15;;;;;;;8.77;4.47;;;10.00;99.90;;;;;;4943760;29;20039;-85
2023/09/29 05:24:40;;;;;;;7.37;4.47;;;10.00;99.90;;;;;;4943068;28;20042;-84
2023/09/29 05:27:06;;;;;;;11.23;4.90;;;10.00;99.90;;;;;;4943162;29;20078;-84
2023/09/29 05:29:32;;;;;;;7.07;4.17;;;10.00;99.90;;;;;;4942851;29;20512;-83
2023/09/29 05:31:57;;;;;;;9.63;4.13;;;10.00;99.90;;;;;;4943137;29;20691;-83
2023/09/29 05:34:23;;;;;;;7.60;4.27;;;10.00;99.90;;;;;;4942714;28;20035;-75
2023/09/29 05:36:49;;;;;;;12.83;4.30;;;10.10;99.90;;;;;;4942684;28;20047;-83
2023/09/29 05:39:14;;;;;;;7.50;4.50;;;10.10;99.90;;;;;;4940300;29;20097;-85
2023/09/29 05:41:40;;;;;;;6.93;4.73;;;10.10;99.90;;;;;;4942522;29;20031;-85
2023/09/29 05:44:06;;;;;;;7.37;4.60;;;10.10;99.90;;;;;;4942618;29;20034;-84
2023/09/29 05:46:31;;;;;;;6.87;3.90;;;10.10;99.90;;;;;;4942623;29;20035;-84
2023/09/29 05:48:57;;;;;;;6.73;4.20;;;10.10;99.90;;;;;;4943802;29;20092;-84
2023/09/29 05:51:23;;;;;;;8.07;4.20;;;10.20;99.90;;;;;;4943819;29;20113;-84
2023/09/29 05:53:48;;;;;;;8.47;4.20;;;10.20;99.90;;;;;;4942623;29;20031;-84
2023/09/29 05:56:15;;;;;;;5.23;3.70;;;10.30;99.90;;;;;;4941001;28;20039;-84
2023/09/29 05:58:41;;;;;;;8.27;3.93;;;10.30;99.90;;;;;;4943630;29;20039;-85
2023/09/29 06:01:11;;;;;;;7.63;4.60;;;10.40;99.90;;;;;;4943614;29;20114;-85
2023/09/29 06:03:37;;;;;;;5.83;4.00;;;10.40;99.90;;;;;;4941430;29;20183;-85
2023/09/29 06:06:04;;;;;;;6.60;4.33;;;10.50;99.90;;;;;;4943736;28;20028;-84
2023/09/29 06:08:29;;;;;;;8.33;4.03;;;10.60;99.90;;;;;;4943940;29;20035;-85
2023/09/29 06:10:55;;;;;;;6.53;4.07;;;10.60;99.90;;;;;;4942442;29;21324;-84
2023/09/29 06:13:20;;;;;;;10.27;4.03;;;10.70;99.90;;;;;;4942770;29;20121;-85
2023/09/29 06:15:46;;;;;;;7.85;5.35;;;10.80;99.90;;;;;;4943157;28;20122;-85
2023/09/29 06:18:11;;;;;;;8.40;4.63;;;10.90;99.90;;;;;;4941022;29;20046;-85
2023/09/29 06:20:37;;;;;;;8.18;4.82;;;10.90;99.90;;;;;;4941951;29;20042;-84
2023/09/29 06:23:04;;;;;;;8.27;4.78;;;11.00;99.90;;;;;;4940618;29;20086;-84
2023/09/29 06:25:30;;;;;;;6.88;4.13;;;11.10;99.90;;;;;;4940181;29;20035;-85
2023/09/29 06:27:57;;;;;;;8.57;3.97;;;11.20;99.90;;;;;;4942142;29;20047;-85
2023/09/29 06:30:22;;;;;;;11.13;4.22;;;11.30;99.90;;;;;;4942734;29;20031;-84
2023/09/29 06:32:48;;;;;;;8.70;4.35;;;11.40;99.90;;;;;;4941108;29;20074;-84
2023/09/29 06:35:14;;;;;;;8.50;3.83;;;11.50;99.90;;;;;;4941131;29;20058;-84
2023/09/29 06:37:41;;;;;;;8.98;3.97;;;11.60;99.90;;;;;;4942619;29;20391;-84
2023/09/29 06:40:10;;;;;;;8.10;4.07;;;11.70;99.90;;;;;;4942520;29;20031;-85
2023/09/29 06:42:36;;;;;;;6.72;4.68;;;11.80;99.90;;;;;;4942038;29;20055;-84
2023/09/29 06:45:03;;;;;;;6.43;4.22;;;11.90;99.90;;;;;;4947264;29;20031;-85
2023/09/29 06:47:28;;;;;;;7.38;4.72;;;12.00;99.90;;;;;;4948424;29;20062;-85
2023/09/29 06:49:54;;;;;;;7.22;4.72;;;12.20;99.90;;;;;;4946889;28;20066;-85
2023/09/29 06:52:19;;;;;;;7.82;4.93;;;12.30;99.90;;;;;;4941826;29;20027;-85
2023/09/29 06:54:45;;;;;;;8.23;4.50;;;12.40;99.90;;;;;;4942668;29;20437;-85
2023/09/29 06:57:11;;;;;;;9.95;4.68;;;12.60;99.90;;;;;;4942305;29;20031;-84
2023/09/29 06:59:36;;;;;;;9.93;4.78;;;12.70;99.90;;;;;;4940034;29;20032;-86
2023/09/29 07:02:02;;;;;;;10.73;4.47;;;12.80;99.90;;;;;;4941018;29;20116;-86
2023/09/29 07:04:27;;;;;;;7.72;4.35;;;13.00;99.90;;;;;;4941334;28;20027;-85
2023/09/29 07:06:53;;;;;;;8.13;3.85;;;13.20;99.90;;;;;;4940855;29;20079;-84
2023/09/29 07:09:18;;;;;;;8.80;4.30;;;13.30;99.90;;;;;;4941206;29;20031;-86
2023/09/29 07:11:44;;;;;;;14.10;4.63;;;13.50;99.90;;;;;;4942812;29;20023;-83
2023/09/29 07:14:10;;;;;;;6.63;4.30;;;13.60;99.90;;;;;;4941052;29;20039;-85
2023/09/29 07:16:35;;;;;;;9.38;3.60;;;13.80;99.90;;;;;;4939721;29;20031;-86
2023/09/29 07:19:01;;;;;;;7.35;3.92;;;13.90;99.90;;;;;;4942034;29;20517;-86
2023/09/29 07:21:27;;;;;;;9.93;4.47;;;14.10;99.90;;;;;;4942857;29;20019;-87
2023/09/29 07:23:52;;;;;;;8.25;3.90;;;14.20;99.90;;;;;;4939988;29;20034;-86
2023/09/29 07:26:18;;;;;;;9.90;4.03;;;14.40;99.90;;;;;;4939848;28;20039;-85
2023/09/29 07:28:44;;;;;;;10.20;4.28;;;14.50;99.90;;;;;;4940516;29;20031;-86
2023/09/29 07:31:10;;;;;;;9.70;3.78;;;14.60;99.90;;;;;;4941970;29;20039;-86
2023/09/29 07:33:35;;;;;;;7.25;3.83;;;14.80;99.90;;;;;;4941151;29;20090;-85
2023/09/29 07:36:01;;;;;;;7.28;4.10;;;14.90;99.90;;;;;;4941679;28;20117;-86
2023/09/29 07:38:27;;;;;;;7.53;3.83;;;15.10;99.90;;;;;;4941341;29;20028;-86
2023/09/29 07:40:53;;;;;;;8.65;4.03;;;15.20;99.90;;;;;;4940351;29;20031;-87
2023/09/29 07:43:18;;;;;;;6.15;3.90;;;15.30;99.90;;;;;;4942309;29;20759;-86
2023/09/29 07:45:46;;;;;;;9.00;4.32;;;15.50;99.90;;;;;;4942201;28;20031;-89
2023/09/29 07:48:18;;;;;;;9.60;4.32;;;15.60;99.90;;;;;;4941096;29;20523;-90
2023/09/29 07:50:44;;;;;;;6.75;4.13;;;15.80;99.90;;;;;;4942337;29;21166;-89
2023/09/29 07:53:11;;;;;;;12.02;4.50;;;15.90;99.90;;;;;;4942359;29;20041;-87
2023/09/29 07:55:36;;;;;;;10.85;4.32;;;16.10;99.90;;;;;;4939743;28;21008;-87
2023/09/29 07:58:02;;;;;;;7.07;3.67;;;16.20;99.90;;;;;;4941422;29;20031;-89
2023/09/29 08:00:27;;;;;;;9.32;3.53;;;16.30;99.90;;;;;;4943219;28;20062;-88
2023/09/29 08:02:53;;;;;;;10.43;3.88;;;16.50;99.90;;;;;;4947958;28;20454;-89
2023/09/29 08:05:19;;;;;;;6.35;3.90;;;16.70;99.90;;;;;;4946913;28;20112;-90
2023/09/29 08:07:45;;;;;;;10.52;3.97;;;16.80;99.90;;;;;;4948557;28;20035;-89
2023/09/29 08:10:11;;;;;;;10.23;3.88;;;17.00;99.90;;;;;;4949402;28;20075;-87
2023/09/29 08:12:36;;;;;;;15.02;4.13;;;17.20;99.90;;;;;;4946804;29;20506;-88
2023/09/29 08:15:05;;;;;;;10.80;3.17;;;17.40;99.90;;;;;;4946994;29;20043;-88
2023/09/29 08:17:31;;;;;;;10.25;3.78;;;17.50;99.90;;;;;;4947924;29;20169;-87
2023/09/29 08:19:56;;;;;;;9.32;3.78;;;17.80;99.90;;;;;;4947643;29;20031;-88
2023/09/29 08:22:22;;;;;;;8.52;4.05;;;18.00;99.90;;;;;;4947530;28;20510;-87
2023/09/29 08:24:47;;;;;;;6.47;3.40;;;18.10;99.90;;;;;;4948018;28;20038;-87
2023/09/29 08:27:13;;;;;;;6.82;3.38;;;18.30;99.90;;;;;;4949484;29;20130;-85
2023/09/29 08:29:39;;;;;;;7.07;3.95;;;18.50;99.90;;;;;;4947069;28;20142;-91
2023/09/29 08:32:04;;;;;;;8.90;3.83;;;18.70;99.90;;;;;;4949513;28;20023;-88
2023/09/29 08:34:34;;;;;;;7.40;3.72;;;18.90;99.90;;;;;;4945989;28;20031;-88
2023/09/29 08:36:59;;;;;;;10.27;3.60;;;19.10;99.90;;;;;;4945760;29;20031;-86
2023/09/29 08:39:25;;;;;;;7.72;3.40;;;19.20;99.90;;;;;;4946923;29;20671;-87
2023/09/29 08:41:58;;;;;;;7.15;3.17;;;19.50;99.90;;;;;;4946119;29;20032;-90
2023/09/29 08:44:27;;;;;;;8.80;3.63;;;19.70;99.90;;;;;;4929337;28;20055;-88
2023/09/29 08:46:54;;;;;;;10.10;4.30;;;19.80;99.90;;;;;;4946497;28;20162;-87
2023/09/29 08:49:21;;;;;;;5.35;3.50;;;20.00;99.90;;;;;;4947485;29;20027;-88
2023/09/29 08:51:47;;;;;;;4.80;3.15;;;20.10;99.90;;;;;;4945987;29;20031;-88
2023/09/29 08:54:14;;;;;;;5.40;3.20;;;20.30;99.90;;;;;;4946284;29;20031;-88
2023/09/29 08:56:40;;;;;;;9.02;3.35;;;20.50;99.90;;;;;;4947367;28;20095;-87
2023/09/29 08:59:06;;;;;;;7.13;3.60;;;20.70;99.90;;;;;;4946635;29;20035;-88
2023/09/29 09:01:32;;;;;;;6.10;2.78;;;21.00;99.90;;;;;;4945779;29;20027;-89
2023/09/29 09:03:58;;;;;;;10.02;3.10;;;21.10;99.90;;;;;;4946044;29;20122;-86
2023/09/29 09:06:25;;;;;;;4.45;3.00;;;21.20;99.90;;;;;;4947836;29;20497;-88
2023/09/29 09:08:53;;;;;;;6.20;3.22;;;21.40;99.90;;;;;;4947757;28;20110;-88
2023/09/29 09:11:19;;;;;;;7.60;3.17;;;21.50;99.90;;;;;;4946803;29;20081;-88
2023/09/29 09:14:15;;;;;;;5.60;3.45;;;21.60;99.90;;;;;;4943386;28;20070;-90
2023/09/29 09:16:41;;;;;;;4.45;3.20;;;21.80;99.90;;;;;;4929208;29;20057;-91
2023/09/29 09:19:14;;;;;;;8.65;3.10;;;21.90;99.90;;;;;;4941971;28;20027;-88
2023/09/29 09:21:42;;;;;;;6.80;3.38;;;22.00;99.90;;;;;;4943880;28;20046;-88
2023/09/29 09:24:20;;;;;;;5.10;3.22;;;22.20;99.90;;;;;;4942937;29;20034;-88
2023/09/29 09:26:46;;;;;;;4.85;3.13;;;22.30;99.90;;;;;;4941672;29;20176;-86
2023/09/29 09:29:16;;;;;;;4.78;3.10;;;22.50;99.90;;;;;;4943969;29;20415;-89
2023/09/29 09:31:47;;;;;;;5.93;3.15;;;22.60;99.90;;;;;;4943736;29;20493;-88
2023/09/29 09:34:13;;;;;;;7.07;3.08;;;22.80;99.90;;;;;;4942748;29;20114;-89
2023/09/29 09:36:52;;;;;;;6.75;3.28;;;23.00;99.90;;;;;;4943508;28;20379;-88
2023/09/29 09:39:22;;;;;;;5.32;3.05;;;23.10;99.90;;;;;;4943389;29;20035;-88
2023/09/29 09:41:51;;;;;;;4.78;3.00;;;23.20;99.90;;;;;;4943123;29;20106;-88
2023/09/29 09:44:18;;;;;;;4.53;2.95;;;23.30;99.90;;;;;;4942768;29;20030;-88
2023/09/29 09:46:53;;;;;;;6.68;3.50;;;23.40;99.90;;;;;;4942950;29;20106;-91
2023/09/29 09:49:24;;;;;;;9.50;3.22;;;23.50;99.90;;;;;;4942047;29;20993;-78
2023/09/29 09:51:52;;;;;;;6.82;3.00;;;23.70;99.90;;;;;;4942844;29;20813;-84
2023/09/29 09:54:26;;;;;;;7.07;3.30;;;23.80;99.90;;;;;;4947191;29;20031;-83
2023/09/29 09:57:01;;;;;;;7.72;3.67;;;23.90;99.90;;;;;;4946839;29;20031;-83
2023/09/29 09:59:28;;;;;;;6.95;3.67;;;24.00;99.90;;;;;;4945738;29;20034;-83
2023/09/29 10:01:55;;;;;;;6.75;3.00;;;24.10;99.90;;;;;;4940425;29;20085;-84
2023/09/29 10:04:24;;;;;;;3.97;3.08;;;24.10;99.90;;;;;;4939839;28;20083;-85
2023/09/29 10:06:50;;;;;;;4.43;2.92;;;24.20;99.90;;;;;;4939454;29;20034;-84
2023/09/29 10:09:16;;;;;;;7.15;3.75;;;24.30;99.90;;;;;;4941514;29;20039;-84
2023/09/29 10:11:43;;;;;;;5.10;3.20;;;24.40;99.90;;;;;;4940936;29;20682;-83
2023/09/29 10:14:09;;;;;;;5.63;3.47;;;24.50;99.90;;;;;;4940361;29;20034;-83
2023/09/29 10:16:35;;;;;;;5.88;3.03;;;24.60;99.90;;;;;;4939295;28;20127;-83
2023/09/29 10:19:05;;;;;;;5.68;2.97;;;24.80;99.90;;;;;;4940794;29;20034;-84
2023/09/29 10:21:41;;;;;;;5.70;3.00;;;24.90;99.90;;;;;;4939104;29;20116;-84
2023/09/29 10:24:10;;;;;;;6.45;3.40;;;24.80;99.90;;;;;;4938479;28;20111;-84
2023/09/29 10:26:45;;;;;;;5.20;2.90;;;24.80;99.90;;;;;;4936957;28;20039;-85
2023/09/29 10:29:18;;;;;;;6.05;3.25;;;24.80;99.90;;;;;;4938401;29;20023;-86
2023/09/29 10:31:44;;;;;;;5.72;3.35;;;25.00;99.90;;;;;;4930407;29;20132;-85
2023/09/29 10:34:24;;;;;;;7.47;3.22;;;24.90;99.90;;;;;;4912363;29;20035;-89
2023/09/29 10:36:54;;;;;;;7.15;2.95;;;25.10;99.90;;;;;;4916796;29;20324;-85
2023/09/29 10:39:27;;;;;;;5.38;3.13;;;25.20;99.90;;;;;;4936025;29;20028;-84
2023/09/29 10:41:58;;;;;;;5.82;3.25;;;25.30;99.90;;;;;;4937842;29;20136;-83
2023/09/29 10:44:27;;;;;;;6.45;2.80;;;25.50;99.90;;;;;;4938821;28;20062;-83
2023/09/29 10:46:53;;;;;;;5.03;2.72;;;25.60;99.90;;;;;;4941840;29;20027;-84
2023/09/29 10:49:19;;;;;;;7.38;3.05;;;25.60;99.90;;;;;;4942454;29;20027;-83
2023/09/29 10:51:46;;;;;;;7.05;2.90;;;25.70;99.90;;;;;;4942200;29;20114;-83
2023/09/29 10:54:11;;;;;;;4.47;2.85;;;25.70;99.90;;;;;;4940167;29;20038;-83
2023/09/29 10:56:37;;;;;;;3.33;2.35;;;25.70;99.90;;;;;;4941571;29;20023;-83
2023/09/29 10:59:08;;;;;;;5.22;2.88;;;25.90;99.90;;;;;;4943386;29;20032;-83
2023/09/29 11:01:34;;;;;;;4.63;3.00;;;26.10;99.90;;;;;;4943348;29;20066;-86
2023/09/29 11:04:01;;;;;;;5.50;3.00;;;26.10;99.90;;;;;;4940379;29;20115;-83
2023/09/29 11:06:27;;;;;;;5.93;3.05;;;26.20;99.90;;;;;;4940406;28;20027;-82
2023/09/29 11:08:58;;;;;;;6.55;3.30;;;26.30;99.90;;;;;;4915845;29;20020;-82
2023/09/29 11:11:34;;;;;;;6.47;3.13;;;26.40;99.90;;;;;;4909289;29;20120;-80
2023/09/29 11:14:04;;;;;;;6.28;3.30;;;26.20;99.90;;;;;;4913909;29;20038;-80
2023/09/29 11:16:30;;;;;;;6.65;3.17;;;26.30;99.90;;;;;;4913196;29;20665;-79
2023/09/29 11:19:12;;;;;;;8.30;3.38;;;26.10;99.90;;;;;;4931044;29;20023;-79
2023/09/29 11:21:40;;;;;;;5.53;2.80;;;26.00;99.90;;;;;;4944202;29;20090;-80
2023/09/29 11:24:09;;;;;;;8.70;3.25;;;26.10;99.90;;;;;;4940811;29;20041;-79
2023/09/29 11:26:38;;;;;;;4.90;2.80;;;26.10;99.90;;;;;;4936639;28;20726;-79
2023/09/29 11:29:03;;;;;;;4.30;2.58;;;26.40;99.90;;;;;;4938055;29;20023;-79
2023/09/29 11:31:29;;;;;;;8.00;2.75;;;26.30;99.90;;;;;;4940030;29;20035;-79
2023/09/29 11:33:56;;;;;;;5.68;2.53;;;26.00;99.90;;;;;;4936312;29;20381;-79
2023/09/29 11:36:23;;;;;;;5.38;3.08;;;25.80;99.90;;;;;;4936569;28;20043;-79
2023/09/29 11:38:50;;;;;;;6.88;2.83;;;25.90;99.90;;;;;;4938559;29;20804;-80
2023/09/29 11:41:17;;;;;;;5.97;2.58;;;26.00;99.90;;;;;;4938823;29;20035;-79
2023/09/29 11:43:44;;;;;;;4.30;2.60;;;26.10;99.90;;;;;;4937115;29;20035;-79
2023/09/29 11:46:09;;;;;;;4.95;2.80;;;26.40;99.90;;;;;;4937293;28;20762;-79
2023/09/29 11:48:35;;;;;;;5.53;2.72;;;26.80;99.90;;;;;;4937309;29;20045;-79
2023/09/29 11:51:01;;;;;;;4.20;2.90;;;27.10;99.90;;;;;;4936403;29;20039;-79
2023/09/29 11:53:27;;;;;;;5.00;2.60;;;27.20;99.90;;;;;;4936762;29;20079;-79
2023/09/29 11:55:54;;;;;;;6.38;2.90;;;27.40;99.90;;;;;;4936952;28;20103;-79
2023/09/29 11:58:20;;;;;;;4.00;2.30;;;27.40;99.90;;;;;;4937642;29;21009;-80
2023/09/29 12:00:47;;;;;;;3.75;2.40;;;27.40;99.90;;;;;;4937352;29;20042;-79
2023/09/29 12:03:13;;;;;;;6.03;2.80;;;27.40;99.90;;;;;;4934543;29;20039;-79
2023/09/29 12:05:44;;;;;;;4.47;2.10;;;27.40;99.90;;;;;;4936505;28;20086;-78
2023/09/29 12:08:10;;;;;;;5.82;2.25;;;27.40;99.90;;;;;;4935738;29;20203;-79
2023/09/29 12:10:36;;;;;;;3.20;2.30;;;27.60;99.90;;;;;;4939411;29;21385;-78
2023/09/29 12:13:01;;;;;;;4.82;2.30;;;27.60;99.90;;;;;;4944282;29;20023;-79
2023/09/29 12:15:28;;;;;;;3.30;2.42;;;27.70;99.90;;;;;;4940345;28;20035;-79
2023/09/29 12:17:54;;;;;;;4.82;2.60;;;27.80;99.90;;;;;;4941339;29;20062;-79
2023/09/29 12:20:21;;;;;;;4.25;2.70;;;27.90;99.90;;;;;;4942878;29;20118;-79
2023/09/29 12:22:47;;;;;;;6.05;2.60;;;27.90;99.90;;;;;;4941137;29;20094;-78
2023/09/29 12:25:14;;;;;;;4.90;2.97;;;27.90;99.90;;;;;;4925530;29;21407;-78
2023/09/29 12:27:44;;;;;;;4.82;2.55;;;28.00;99.90;;;;;;4942858;29;20173;-78
2023/09/29 12:30:15;;;;;;;3.53;2.50;;;28.00;99.90;;;;;;4942221;29;20351;-78
2023/09/29 12:32:42;;;;;;;4.65;2.60;;;28.00;99.90;;;;;;4941989;29;20078;-78
2023/09/29 12:35:09;;;;;;;3.92;2.58;;;28.00;99.90;;;;;;4942768;29;20818;-78
2023/09/29 12:37:36;;;;;;;7.50;2.45;;;28.20;99.90;;;;;;4943299;29;20047;-78
2023/09/29 12:40:01;;;;;;;4.32;2.40;;;28.00;99.90;;;;;;4939555;29;20035;-78
2023/09/29 12:42:27;;;;;;;5.82;2.42;;;28.20;99.90;;;;;;4941735;29;20102;-78
2023/09/29 12:44:52;;;;;;;5.90;2.58;;;28.20;99.90;;;;;;4941749;28;20086;-78
2023/09/29 12:47:18;;;;;;;4.57;2.20;;;28.20;99.90;;;;;;4943086;28;20027;-77